Spruce Pine, NC

3:14 PM EDT on May 03, 2015 (GMT -0400)
Morganton-Lenoir | | Change Station
CLOSE
Current Station
Airport
Location: Morganton,
Elevation: 1270 ft
Nearby Weather Stations

Elev 1270 ft 35.82 °N, 81.61 °W | Updated 19 minutes ago

Partly Cloudy
Partly Cloudy
76 °F
Feels Like 76 °F
N
7
Wind Variable Wind from South

Today
High -- | Low -- °F
--% Chance of Precip.
Yesterday
High -- | Low -- °F
Precip. -- in
6:34 AM 8:16 PM
Full, 100% visible
Pressure 30.20 in
Visibility 10.0 miles
Clouds Scattered Clouds 6500 ft
Scattered Clouds 8500 ft
Dew Point 44 °F
Humidity 31%
Rainfall 0.00 in
Snow Depth Not available.
UV 8 out of 12
Pollen 8.10 out of 12
Air Quality Not available.
Flu Activity No Activity
METAR KMRN 031855Z AUTO 19006KT 10SM SCT065 SCT085 25/06 A3020 RMK AO2 T02460064

More Conditions Fewer Conditions

Pressure 30.20 in
Visibility 10.0 miles
Clouds Scattered Clouds 6500 ft
Scattered Clouds 8500 ft
Dew Point 44 °F
Humidity 31%
Rainfall 0.00 in
Snow Depth Not available.
UV 8 out of 12
Pollen 8.10 out of 12
Air Quality Not available.
Flu Activity No Activity
METAR KMRN 031855Z AUTO 19006KT 10SM SCT065 SCT085 25/06 A3020 RMK AO2 T02460064

More Conditions Fewer Conditions

Nepal has a long way to go to dig out and rebuild from a devastating earthquake. We have teamed up with several charities and organizations to make contributing to the relief effort as easy as possible.
How you can help: Portlight Strategies | Red Cross

10-Day Weather Forecast

Almanac

Astronomy

May. 03, 2015 Rise Set
Actual Time
Civil Twilight
Nautical Twilight
Astronomical Twilight
Moon
Length of Visible Light
Length of Day
Tomorrow will be .
, % of the Moon is Illuminated

Today's Extremes

State Highs State Lows

Community

WunderPhotos

Upload Photos

1,818,343 photos uploaded!

WunderBlogs® & News

Nearby

Air Quality

  Air Quality AQ Index Pollutant
Not available.

Snow Depth

Station Depth Elevation

Earthquake Activity

City Distance Mag. Time & Date
Minimum magnitude displayed is 2.5.

Coastal Water Temperatures

Place Temperature

Stations

Nearby Weather Stations

Station Location Temp. Windchill Dew Point Humidity Wind Precip. Elev Updated Type